sensor_id;sensor_type;location;lat;lon;timestamp;P1;durP1;ratioP1;P2;durP2;ratioP2
14139;SDS011;7150;53.514;9.988;2023-01-19T00:00:25;10.67;;;6.90;;
14139;SDS011;7150;53.514;9.988;2023-01-19T00:02:51;11.20;;;6.60;;
14139;SDS011;7150;53.514;9.988;2023-01-19T00:05:16;13.97;;;7.07;;
14139;SDS011;7150;53.514;9.988;2023-01-19T00:07:42;9.77;;;6.60;;
14139;SDS011;7150;53.514;9.988;2023-01-19T00:10:08;12.73;;;6.47;;
14139;SDS011;7150;53.514;9.988;2023-01-19T00:12:34;12.10;;;6.47;;
14139;SDS011;7150;53.514;9.988;2023-01-19T00:14:59;11.27;;;6.20;;
14139;SDS011;7150;53.514;9.988;2023-01-19T00:17:25;12.10;;;6.53;;
14139;SDS011;7150;53.514;9.988;2023-01-19T00:19:51;11.47;;;7.37;;
14139;SDS011;7150;53.514;9.988;2023-01-19T00:22:16;12.93;;;6.37;;
14139;SDS011;7150;53.514;9.988;2023-01-19T00:24:42;14.00;;;6.87;;
14139;SDS011;7150;53.514;9.988;2023-01-19T00:27:08;13.23;;;7.00;;
14139;SDS011;7150;53.514;9.988;2023-01-19T00:29:34;13.50;;;6.73;;
14139;SDS011;7150;53.514;9.988;2023-01-19T00:32:00;13.13;;;7.77;;
14139;SDS011;7150;53.514;9.988;2023-01-19T00:34:26;11.90;;;7.07;;
14139;SDS011;7150;53.514;9.988;2023-01-19T00:37:00;12.03;;;6.90;;
14139;SDS011;7150;53.514;9.988;2023-01-19T00:39:27;14.60;;;7.37;;
14139;SDS011;7150;53.514;9.988;2023-01-19T00:41:52;13.03;;;6.83;;
14139;SDS011;7150;53.514;9.988;2023-01-19T00:44:36;10.17;;;6.10;;
14139;SDS011;7150;53.514;9.988;2023-01-19T00:47:02;9.60;;;6.83;;
14139;SDS011;7150;53.514;9.988;2023-01-19T00:49:29;13.90;;;6.83;;
14139;SDS011;7150;53.514;9.988;2023-01-19T00:51:55;11.37;;;6.57;;
14139;SDS011;7150;53.514;9.988;2023-01-19T00:54:20;12.10;;;6.67;;
14139;SDS011;7150;53.514;9.988;2023-01-19T00:56:46;10.17;;;6.80;;
14139;SDS011;7150;53.514;9.988;2023-01-19T00:59:11;13.00;;;6.90;;
14139;SDS011;7150;53.514;9.988;2023-01-19T01:01:37;12.20;;;6.87;;
14139;SDS011;7150;53.514;9.988;2023-01-19T01:04:02;13.83;;;7.07;;
14139;SDS011;7150;53.514;9.988;2023-01-19T01:06:28;10.87;;;6.50;;
14139;SDS011;7150;53.514;9.988;2023-01-19T01:08:53;10.77;;;6.57;;
14139;SDS011;7150;53.514;9.988;2023-01-19T01:11:19;11.73;;;6.63;;
14139;SDS011;7150;53.514;9.988;2023-01-19T01:13:44;11.77;;;6.60;;
14139;SDS011;7150;53.514;9.988;2023-01-19T01:16:10;10.07;;;6.67;;
14139;SDS011;7150;53.514;9.988;2023-01-19T01:18:38;12.73;;;7.37;;
14139;SDS011;7150;53.514;9.988;2023-01-19T01:21:04;9.03;;;5.80;;
14139;SDS011;7150;53.514;9.988;2023-01-19T01:23:32;14.93;;;7.37;;
14139;SDS011;7150;53.514;9.988;2023-01-19T01:25:58;11.23;;;7.27;;
14139;SDS011;7150;53.514;9.988;2023-01-19T01:28:24;11.60;;;6.67;;
14139;SDS011;7150;53.514;9.988;2023-01-19T01:30:53;10.70;;;6.47;;
14139;SDS011;7150;53.514;9.988;2023-01-19T01:33:19;10.93;;;7.63;;
14139;SDS011;7150;53.514;9.988;2023-01-19T01:35:46;11.87;;;6.97;;
14139;SDS011;7150;53.514;9.988;2023-01-19T01:38:12;10.57;;;6.27;;
14139;SDS011;7150;53.514;9.988;2023-01-19T01:40:39;14.30;;;6.63;;
14139;SDS011;7150;53.514;9.988;2023-01-19T01:43:09;10.90;;;7.07;;
14139;SDS011;7150;53.514;9.988;2023-01-19T01:45:37;12.50;;;7.40;;
14139;SDS011;7150;53.514;9.988;2023-01-19T01:48:14;10.83;;;6.70;;
14139;SDS011;7150;53.514;9.988;2023-01-19T01:50:57;11.07;;;5.87;;
14139;SDS011;7150;53.514;9.988;2023-01-19T01:53:44;13.23;;;6.83;;
14139;SDS011;7150;53.514;9.988;2023-01-19T01:56:13;10.90;;;6.63;;
14139;SDS011;7150;53.514;9.988;2023-01-19T01:58:41;11.30;;;7.13;;
14139;SDS011;7150;53.514;9.988;2023-01-19T02:01:08;10.30;;;5.93;;
14139;SDS011;7150;53.514;9.988;2023-01-19T02:03:53;10.97;;;6.33;;
14139;SDS011;7150;53.514;9.988;2023-01-19T02:06:19;11.03;;;6.20;;
14139;SDS011;7150;53.514;9.988;2023-01-19T02:09:07;11.10;;;5.67;;
14139;SDS011;7150;53.514;9.988;2023-01-19T02:11:53;12.17;;;6.60;;
14139;SDS011;7150;53.514;9.988;2023-01-19T02:14:37;10.63;;;5.83;;
14139;SDS011;7150;53.514;9.988;2023-01-19T02:17:03;9.33;;;5.67;;
14139;SDS011;7150;53.514;9.988;2023-01-19T02:19:30;11.43;;;6.33;;
14139;SDS011;7150;53.514;9.988;2023-01-19T02:22:13;10.77;;;6.27;;
14139;SDS011;7150;53.514;9.988;2023-01-19T02:24:44;12.83;;;6.60;;
14139;SDS011;7150;53.514;9.988;2023-01-19T02:27:10;11.10;;;6.23;;
14139;SDS011;7150;53.514;9.988;2023-01-19T02:29:36;9.80;;;5.97;;
14139;SDS011;7150;53.514;9.988;2023-01-19T02:32:02;10.60;;;7.07;;
14139;SDS011;7150;53.514;9.988;2023-01-19T02:34:29;10.13;;;6.13;;
14139;SDS011;7150;53.514;9.988;2023-01-19T02:37:00;10.40;;;6.83;;
14139;SDS011;7150;53.514;9.988;2023-01-19T02:42:07;10.87;;;6.30;;
14139;SDS011;7150;53.514;9.988;2023-01-19T02:44:37;11.50;;;6.40;;
14139;SDS011;7150;53.514;9.988;2023-01-19T02:47:04;10.40;;;6.07;;
14139;SDS011;7150;53.514;9.988;2023-01-19T02:49:30;11.63;;;6.70;;
14139;SDS011;7150;53.514;9.988;2023-01-19T02:51:55;11.23;;;6.40;;
14139;SDS011;7150;53.514;9.988;2023-01-19T02:54:25;11.73;;;6.30;;
14139;SDS011;7150;53.514;9.988;2023-01-19T02:57:17;10.50;;;6.60;;
14139;SDS011;7150;53.514;9.988;2023-01-19T03:02:57;12.50;;;6.17;;
14139;SDS011;7150;53.514;9.988;2023-01-19T03:08:29;11.17;;;6.23;;
14139;SDS011;7150;53.514;9.988;2023-01-19T03:11:00;12.90;;;6.27;;
14139;SDS011;7150;53.514;9.988;2023-01-19T03:13:40;10.77;;;6.63;;
14139;SDS011;7150;53.514;9.988;2023-01-19T03:16:11;11.20;;;7.33;;
14139;SDS011;7150;53.514;9.988;2023-01-19T03:18:46;12.97;;;6.60;;
14139;SDS011;7150;53.514;9.988;2023-01-19T03:21:19;15.57;;;7.20;;
14139;SDS011;7150;53.514;9.988;2023-01-19T03:23:49;12.53;;;7.23;;
14139;SDS011;7150;53.514;9.988;2023-01-19T03:26:20;10.33;;;6.60;;
14139;SDS011;7150;53.514;9.988;2023-01-19T03:28:48;9.27;;;6.17;;
14139;SDS011;7150;53.514;9.988;2023-01-19T03:31:17;12.77;;;6.20;;
14139;SDS011;7150;53.514;9.988;2023-01-19T03:33:46;12.67;;;7.13;;
14139;SDS011;7150;53.514;9.988;2023-01-19T03:36:43;11.77;;;6.90;;
14139;SDS011;7150;53.514;9.988;2023-01-19T03:39:16;11.80;;;7.07;;
14139;SDS011;7150;53.514;9.988;2023-01-19T03:41:47;9.47;;;6.47;;
14139;SDS011;7150;53.514;9.988;2023-01-19T03:44:15;10.07;;;6.43;;
14139;SDS011;7150;53.514;9.988;2023-01-19T03:46:41;14.17;;;7.10;;
14139;SDS011;7150;53.514;9.988;2023-01-19T03:49:07;10.17;;;6.53;;
14139;SDS011;7150;53.514;9.988;2023-01-19T03:51:36;12.70;;;6.23;;
14139;SDS011;7150;53.514;9.988;2023-01-19T03:54:03;15.87;;;7.27;;
14139;SDS011;7150;53.514;9.988;2023-01-19T03:56:29;14.47;;;7.00;;
14139;SDS011;7150;53.514;9.988;2023-01-19T03:58:55;10.40;;;6.67;;
14139;SDS011;7150;53.514;9.988;2023-01-19T04:01:21;11.63;;;6.43;;
14139;SDS011;7150;53.514;9.988;2023-01-19T04:03:46;11.87;;;7.00;;
14139;SDS011;7150;53.514;9.988;2023-01-19T04:06:13;12.03;;;7.43;;
14139;SDS011;7150;53.514;9.988;2023-01-19T04:08:38;12.00;;;7.13;;
14139;SDS011;7150;53.514;9.988;2023-01-19T04:11:04;10.63;;;6.60;;
14139;SDS011;7150;53.514;9.988;2023-01-19T04:13:32;11.57;;;7.37;;
14139;SDS011;7150;53.514;9.988;2023-01-19T04:15:59;10.03;;;7.43;;
14139;SDS011;7150;53.514;9.988;2023-01-19T04:18:25;13.03;;;7.30;;
14139;SDS011;7150;53.514;9.988;2023-01-19T04:20:51;10.90;;;6.60;;
14139;SDS011;7150;53.514;9.988;2023-01-19T04:23:17;14.20;;;7.53;;
14139;SDS011;7150;53.514;9.988;2023-01-19T04:25:42;13.30;;;7.03;;
14139;SDS011;7150;53.514;9.988;2023-01-19T04:28:08;14.57;;;8.17;;
14139;SDS011;7150;53.514;9.988;2023-01-19T04:30:33;11.40;;;7.30;;
14139;SDS011;7150;53.514;9.988;2023-01-19T04:32:59;10.87;;;7.10;;
14139;SDS011;7150;53.514;9.988;2023-01-19T04:35:24;18.73;;;7.93;;
14139;SDS011;7150;53.514;9.988;2023-01-19T04:37:50;13.37;;;8.27;;
14139;SDS011;7150;53.514;9.988;2023-01-19T04:40:15;12.20;;;7.67;;
14139;SDS011;7150;53.514;9.988;2023-01-19T04:42:44;12.63;;;7.57;;
14139;SDS011;7150;53.514;9.988;2023-01-19T04:45:10;13.97;;;7.67;;
14139;SDS011;7150;53.514;9.988;2023-01-19T04:47:37;12.93;;;7.60;;
14139;SDS011;7150;53.514;9.988;2023-01-19T04:50:03;13.43;;;7.97;;
14139;SDS011;7150;53.514;9.988;2023-01-19T04:52:32;15.60;;;8.47;;
14139;SDS011;7150;53.514;9.988;2023-01-19T04:55:02;15.23;;;8.13;;
14139;SDS011;7150;53.514;9.988;2023-01-19T04:57:28;12.73;;;7.17;;
14139;SDS011;7150;53.514;9.988;2023-01-19T04:59:54;13.50;;;7.83;;
14139;SDS011;7150;53.514;9.988;2023-01-19T05:02:20;15.07;;;9.27;;
14139;SDS011;7150;53.514;9.988;2023-01-19T05:04:46;13.20;;;7.70;;
14139;SDS011;7150;53.514;9.988;2023-01-19T05:07:12;14.23;;;7.63;;
14139;SDS011;7150;53.514;9.988;2023-01-19T05:09:38;15.07;;;7.57;;
14139;SDS011;7150;53.514;9.988;2023-01-19T05:12:03;14.07;;;8.40;;
14139;SDS011;7150;53.514;9.988;2023-01-19T05:14:29;15.30;;;8.87;;
14139;SDS011;7150;53.514;9.988;2023-01-19T05:16:55;12.43;;;7.33;;
14139;SDS011;7150;53.514;9.988;2023-01-19T05:19:20;11.60;;;7.50;;
14139;SDS011;7150;53.514;9.988;2023-01-19T05:21:46;14.03;;;9.70;;
14139;SDS011;7150;53.514;9.988;2023-01-19T05:24:12;12.67;;;7.53;;
14139;SDS011;7150;53.514;9.988;2023-01-19T05:26:37;11.13;;;7.37;;
14139;SDS011;7150;53.514;9.988;2023-01-19T05:29:03;15.67;;;7.87;;
14139;SDS011;7150;53.514;9.988;2023-01-19T05:31:28;14.67;;;8.03;;
14139;SDS011;7150;53.514;9.988;2023-01-19T05:33:54;13.73;;;8.40;;
14139;SDS011;7150;53.514;9.988;2023-01-19T05:36:20;14.33;;;8.60;;
14139;SDS011;7150;53.514;9.988;2023-01-19T05:38:45;9.57;;;7.17;;
14139;SDS011;7150;53.514;9.988;2023-01-19T05:41:11;13.70;;;8.53;;
14139;SDS011;7150;53.514;9.988;2023-01-19T05:43:36;13.33;;;8.27;;
14139;SDS011;7150;53.514;9.988;2023-01-19T05:46:02;13.80;;;9.00;;
14139;SDS011;7150;53.514;9.988;2023-01-19T05:48:29;16.27;;;10.00;;
14139;SDS011;7150;53.514;9.988;2023-01-19T05:50:58;13.73;;;8.80;;
14139;SDS011;7150;53.514;9.988;2023-01-19T05:53:23;14.07;;;8.97;;
14139;SDS011;7150;53.514;9.988;2023-01-19T05:55:49;12.67;;;8.33;;
14139;SDS011;7150;53.514;9.988;2023-01-19T05:58:15;13.03;;;9.23;;
14139;SDS011;7150;53.514;9.988;2023-01-19T06:00:40;15.67;;;8.60;;
14139;SDS011;7150;53.514;9.988;2023-01-19T06:03:06;14.20;;;8.97;;
14139;SDS011;7150;53.514;9.988;2023-01-19T06:05:32;15.13;;;8.10;;
14139;SDS011;7150;53.514;9.988;2023-01-19T06:07:57;13.20;;;8.40;;
14139;SDS011;7150;53.514;9.988;2023-01-19T06:10:23;14.57;;;8.23;;
14139;SDS011;7150;53.514;9.988;2023-01-19T06:12:49;11.37;;;8.20;;
14139;SDS011;7150;53.514;9.988;2023-01-19T06:15:16;13.77;;;8.30;;
14139;SDS011;7150;53.514;9.988;2023-01-19T06:17:42;14.07;;;9.27;;
14139;SDS011;7150;53.514;9.988;2023-01-19T06:20:07;12.83;;;8.10;;
14139;SDS011;7150;53.514;9.988;2023-01-19T06:22:33;13.90;;;8.13;;
14139;SDS011;7150;53.514;9.988;2023-01-19T06:24:59;13.30;;;7.83;;
14139;SDS011;7150;53.514;9.988;2023-01-19T06:27:24;12.53;;;8.67;;
14139;SDS011;7150;53.514;9.988;2023-01-19T06:29:50;13.73;;;8.27;;
14139;SDS011;7150;53.514;9.988;2023-01-19T06:32:15;11.40;;;7.43;;
14139;SDS011;7150;53.514;9.988;2023-01-19T06:34:41;11.90;;;7.67;;
14139;SDS011;7150;53.514;9.988;2023-01-19T06:37:07;12.17;;;7.37;;
14139;SDS011;7150;53.514;9.988;2023-01-19T06:39:35;10.83;;;7.63;;
14139;SDS011;7150;53.514;9.988;2023-01-19T06:42:02;12.10;;;7.67;;
14139;SDS011;7150;53.514;9.988;2023-01-19T06:44:27;11.57;;;8.03;;
14139;SDS011;7150;53.514;9.988;2023-01-19T06:46:53;12.47;;;7.97;;
14139;SDS011;7150;53.514;9.988;2023-01-19T06:49:18;12.07;;;8.20;;
14139;SDS011;7150;53.514;9.988;2023-01-19T06:51:44;11.33;;;8.10;;
14139;SDS011;7150;53.514;9.988;2023-01-19T06:54:09;14.50;;;8.80;;
14139;SDS011;7150;53.514;9.988;2023-01-19T06:56:35;11.13;;;7.63;;
14139;SDS011;7150;53.514;9.988;2023-01-19T06:59:00;11.17;;;7.83;;
14139;SDS011;7150;53.514;9.988;2023-01-19T07:01:26;11.83;;;8.40;;
14139;SDS011;7150;53.514;9.988;2023-01-19T07:03:51;14.03;;;8.30;;
14139;SDS011;7150;53.514;9.988;2023-01-19T07:06:17;12.77;;;8.00;;
14139;SDS011;7150;53.514;9.988;2023-01-19T07:08:42;10.90;;;7.97;;
14139;SDS011;7150;53.514;9.988;2023-01-19T07:11:08;11.43;;;7.10;;
14139;SDS011;7150;53.514;9.988;2023-01-19T07:13:36;12.43;;;8.00;;
14139;SDS011;7150;53.514;9.988;2023-01-19T07:16:04;11.83;;;8.03;;
14139;SDS011;7150;53.514;9.988;2023-01-19T07:18:30;13.07;;;8.90;;
14139;SDS011;7150;53.514;9.988;2023-01-19T07:20:56;11.33;;;7.97;;
14139;SDS011;7150;53.514;9.988;2023-01-19T07:23:22;13.77;;;9.10;;
14139;SDS011;7150;53.514;9.988;2023-01-19T07:25:47;12.17;;;8.93;;
14139;SDS011;7150;53.514;9.988;2023-01-19T07:28:13;12.73;;;8.37;;
14139;SDS011;7150;53.514;9.988;2023-01-19T07:30:43;14.63;;;9.40;;
14139;SDS011;7150;53.514;9.988;2023-01-19T07:33:10;14.00;;;9.13;;
14139;SDS011;7150;53.514;9.988;2023-01-19T07:35:36;19.67;;;10.20;;
14139;SDS011;7150;53.514;9.988;2023-01-19T07:38:01;15.07;;;9.30;;
14139;SDS011;7150;53.514;9.988;2023-01-19T07:40:27;14.80;;;8.83;;
14139;SDS011;7150;53.514;9.988;2023-01-19T07:42:53;13.33;;;8.97;;
14139;SDS011;7150;53.514;9.988;2023-01-19T07:45:19;14.97;;;9.57;;
14139;SDS011;7150;53.514;9.988;2023-01-19T07:47:45;13.97;;;9.03;;
14139;SDS011;7150;53.514;9.988;2023-01-19T07:50:13;14.40;;;9.63;;
14139;SDS011;7150;53.514;9.988;2023-01-19T07:52:39;13.93;;;8.27;;
14139;SDS011;7150;53.514;9.988;2023-01-19T07:55:05;15.87;;;9.97;;
14139;SDS011;7150;53.514;9.988;2023-01-19T07:57:30;15.60;;;10.40;;
14139;SDS011;7150;53.514;9.988;2023-01-19T07:59:56;14.07;;;9.17;;
14139;SDS011;7150;53.514;9.988;2023-01-19T08:02:22;13.17;;;9.17;;
14139;SDS011;7150;53.514;9.988;2023-01-19T08:04:47;14.37;;;9.83;;
14139;SDS011;7150;53.514;9.988;2023-01-19T08:07:13;16.60;;;10.23;;
14139;SDS011;7150;53.514;9.988;2023-01-19T08:09:38;15.60;;;9.57;;
14139;SDS011;7150;53.514;9.988;2023-01-19T08:12:04;14.73;;;8.97;;
14139;SDS011;7150;53.514;9.988;2023-01-19T08:14:30;12.93;;;9.17;;
14139;SDS011;7150;53.514;9.988;2023-01-19T08:17:01;13.57;;;9.23;;
14139;SDS011;7150;53.514;9.988;2023-01-19T08:19:28;14.50;;;9.17;;
14139;SDS011;7150;53.514;9.988;2023-01-19T08:21:53;14.17;;;8.93;;
14139;SDS011;7150;53.514;9.988;2023-01-19T08:24:20;13.53;;;8.50;;
14139;SDS011;7150;53.514;9.988;2023-01-19T08:26:47;13.63;;;8.47;;
14139;SDS011;7150;53.514;9.988;2023-01-19T08:29:13;14.40;;;8.13;;
14139;SDS011;7150;53.514;9.988;2023-01-19T08:31:39;13.10;;;9.33;;
14139;SDS011;7150;53.514;9.988;2023-01-19T08:34:06;13.47;;;8.40;;
14139;SDS011;7150;53.514;9.988;2023-01-19T08:36:32;16.47;;;9.57;;
14139;SDS011;7150;53.514;9.988;2023-01-19T08:38:57;14.10;;;8.10;;
14139;SDS011;7150;53.514;9.988;2023-01-19T08:41:23;13.87;;;8.80;;
14139;SDS011;7150;53.514;9.988;2023-01-19T08:43:48;14.17;;;8.73;;
14139;SDS011;7150;53.514;9.988;2023-01-19T08:46:14;14.00;;;8.87;;
14139;SDS011;7150;53.514;9.988;2023-01-19T08:48:41;13.23;;;9.07;;
14139;SDS011;7150;53.514;9.988;2023-01-19T08:51:09;14.60;;;9.33;;
14139;SDS011;7150;53.514;9.988;2023-01-19T08:53:35;17.23;;;10.17;;
14139;SDS011;7150;53.514;9.988;2023-01-19T08:56:01;16.57;;;8.70;;
14139;SDS011;7150;53.514;9.988;2023-01-19T08:58:27;17.33;;;9.20;;
14139;SDS011;7150;53.514;9.988;2023-01-19T09:00:52;17.60;;;9.43;;
14139;SDS011;7150;53.514;9.988;2023-01-19T09:03:19;15.13;;;9.63;;
14139;SDS011;7150;53.514;9.988;2023-01-19T09:05:46;18.77;;;10.03;;
14139;SDS011;7150;53.514;9.988;2023-01-19T09:08:13;14.40;;;9.67;;
14139;SDS011;7150;53.514;9.988;2023-01-19T09:10:43;16.63;;;10.50;;
14139;SDS011;7150;53.514;9.988;2023-01-19T09:13:14;13.83;;;9.03;;
14139;SDS011;7150;53.514;9.988;2023-01-19T09:15:40;15.03;;;8.83;;
14139;SDS011;7150;53.514;9.988;2023-01-19T09:18:08;15.90;;;9.83;;
14139;SDS011;7150;53.514;9.988;2023-01-19T09:20:44;13.57;;;9.43;;
14139;SDS011;7150;53.514;9.988;2023-01-19T09:23:12;15.83;;;9.43;;
14139;SDS011;7150;53.514;9.988;2023-01-19T09:25:39;15.37;;;9.63;;
14139;SDS011;7150;53.514;9.988;2023-01-19T09:28:09;15.73;;;10.53;;
14139;SDS011;7150;53.514;9.988;2023-01-19T09:30:36;15.77;;;9.13;;
14139;SDS011;7150;53.514;9.988;2023-01-19T09:33:03;14.67;;;10.13;;
14139;SDS011;7150;53.514;9.988;2023-01-19T09:35:35;17.90;;;11.20;;
14139;SDS011;7150;53.514;9.988;2023-01-19T09:38:04;15.63;;;10.33;;
14139;SDS011;7150;53.514;9.988;2023-01-19T09:40:31;16.97;;;10.10;;
14139;SDS011;7150;53.514;9.988;2023-01-19T09:48:04;14.40;;;9.27;;
14139;SDS011;7150;53.514;9.988;2023-01-19T09:50:44;14.37;;;8.90;;
14139;SDS011;7150;53.514;9.988;2023-01-19T09:53:25;13.63;;;8.40;;
14139;SDS011;7150;53.514;9.988;2023-01-19T09:55:54;15.77;;;9.43;;
14139;SDS011;7150;53.514;9.988;2023-01-19T09:58:19;13.10;;;8.70;;
14139;SDS011;7150;53.514;9.988;2023-01-19T10:00:57;13.03;;;8.33;;
14139;SDS011;7150;53.514;9.988;2023-01-19T10:03:33;14.17;;;8.30;;
14139;SDS011;7150;53.514;9.988;2023-01-19T10:06:03;12.67;;;7.80;;
14139;SDS011;7150;53.514;9.988;2023-01-19T10:08:41;16.73;;;9.63;;
14139;SDS011;7150;53.514;9.988;2023-01-19T10:13:57;17.00;;;8.67;;
14139;SDS011;7150;53.514;9.988;2023-01-19T10:16:44;12.67;;;8.80;;
14139;SDS011;7150;53.514;9.988;2023-01-19T10:21:47;13.43;;;8.07;;
14139;SDS011;7150;53.514;9.988;2023-01-19T10:24:17;12.70;;;8.33;;
14139;SDS011;7150;53.514;9.988;2023-01-19T10:26:57;12.93;;;8.67;;
14139;SDS011;7150;53.514;9.988;2023-01-19T10:29:33;13.40;;;9.57;;
14139;SDS011;7150;53.514;9.988;2023-01-19T10:32:08;14.00;;;8.00;;
14139;SDS011;7150;53.514;9.988;2023-01-19T10:34:37;17.83;;;8.97;;
14139;SDS011;7150;53.514;9.988;2023-01-19T10:37:04;11.33;;;8.63;;
14139;SDS011;7150;53.514;9.988;2023-01-19T10:39:39;12.87;;;8.33;;
14139;SDS011;7150;53.514;9.988;2023-01-19T10:42:08;16.07;;;8.00;;
14139;SDS011;7150;53.514;9.988;2023-01-19T10:44:36;13.37;;;8.23;;
14139;SDS011;7150;53.514;9.988;2023-01-19T10:47:02;13.33;;;8.40;;
14139;SDS011;7150;53.514;9.988;2023-01-19T10:49:37;13.50;;;7.80;;
14139;SDS011;7150;53.514;9.988;2023-01-19T10:52:04;11.90;;;7.70;;
14139;SDS011;7150;53.514;9.988;2023-01-19T10:54:32;10.80;;;7.80;;
14139;SDS011;7150;53.514;9.988;2023-01-19T10:57:00;13.97;;;8.17;;
14139;SDS011;7150;53.514;9.988;2023-01-19T11:04:50;12.77;;;7.73;;
14139;SDS011;7150;53.514;9.988;2023-01-19T11:07:22;12.53;;;8.20;;
14139;SDS011;7150;53.514;9.988;2023-01-19T11:09:48;12.63;;;7.90;;
14139;SDS011;7150;53.514;9.988;2023-01-19T11:12:22;12.47;;;7.33;;
14139;SDS011;7150;53.514;9.988;2023-01-19T11:14:49;15.10;;;8.30;;
14139;SDS011;7150;53.514;9.988;2023-01-19T11:17:17;13.40;;;8.17;;
14139;SDS011;7150;53.514;9.988;2023-01-19T11:19:51;14.10;;;8.43;;
14139;SDS011;7150;53.514;9.988;2023-01-19T11:22:19;10.73;;;7.07;;
14139;SDS011;7150;53.514;9.988;2023-01-19T11:24:55;15.10;;;8.67;;
14139;SDS011;7150;53.514;9.988;2023-01-19T11:27:22;12.10;;;7.87;;
14139;SDS011;7150;53.514;9.988;2023-01-19T11:29:59;9.67;;;6.67;;
14139;SDS011;7150;53.514;9.988;2023-01-19T11:32:34;11.00;;;7.93;;
14139;SDS011;7150;53.514;9.988;2023-01-19T11:35:01;11.23;;;7.57;;
14139;SDS011;7150;53.514;9.988;2023-01-19T11:37:45;13.33;;;7.80;;
14139;SDS011;7150;53.514;9.988;2023-01-19T11:40:11;12.83;;;7.97;;
14139;SDS011;7150;53.514;9.988;2023-01-19T11:42:36;11.50;;;7.53;;
14139;SDS011;7150;53.514;9.988;2023-01-19T11:45:03;11.80;;;7.03;;
14139;SDS011;7150;53.514;9.988;2023-01-19T11:47:42;10.53;;;7.50;;
14139;SDS011;7150;53.514;9.988;2023-01-19T11:50:12;11.03;;;7.50;;
14139;SDS011;7150;53.514;9.988;2023-01-19T11:55:32;11.63;;;7.37;;
14139;SDS011;7150;53.514;9.988;2023-01-19T11:58:14;12.43;;;7.67;;
14139;SDS011;7150;53.514;9.988;2023-01-19T12:00:43;12.03;;;6.53;;
14139;SDS011;7150;53.514;9.988;2023-01-19T12:03:24;10.70;;;6.73;;
14139;SDS011;7150;53.514;9.988;2023-01-19T12:06:09;11.30;;;7.40;;
14139;SDS011;7150;53.514;9.988;2023-01-19T12:08:54;13.47;;;7.83;;
14139;SDS011;7150;53.514;9.988;2023-01-19T12:11:29;9.50;;;6.93;;
14139;SDS011;7150;53.514;9.988;2023-01-19T12:14:00;11.53;;;7.07;;
14139;SDS011;7150;53.514;9.988;2023-01-19T12:16:30;14.50;;;7.40;;
14139;SDS011;7150;53.514;9.988;2023-01-19T12:18:59;9.27;;;6.60;;
14139;SDS011;7150;53.514;9.988;2023-01-19T12:21:27;10.80;;;7.23;;
14139;SDS011;7150;53.514;9.988;2023-01-19T12:24:04;12.07;;;7.40;;
14139;SDS011;7150;53.514;9.988;2023-01-19T12:26:53;11.57;;;7.00;;
14139;SDS011;7150;53.514;9.988;2023-01-19T12:29:21;12.20;;;7.87;;
14139;SDS011;7150;53.514;9.988;2023-01-19T12:34:41;11.60;;;7.17;;
14139;SDS011;7150;53.514;9.988;2023-01-19T12:40:17;12.00;;;7.10;;
14139;SDS011;7150;53.514;9.988;2023-01-19T12:45:27;13.90;;;7.60;;
14139;SDS011;7150;53.514;9.988;2023-01-19T12:48:01;13.57;;;7.77;;
14139;SDS011;7150;53.514;9.988;2023-01-19T12:50:28;12.90;;;6.87;;
14139;SDS011;7150;53.514;9.988;2023-01-19T12:53:04;11.80;;;7.60;;
14139;SDS011;7150;53.514;9.988;2023-01-19T12:55:39;10.30;;;6.93;;
14139;SDS011;7150;53.514;9.988;2023-01-19T12:58:15;12.07;;;8.00;;
14139;SDS011;7150;53.514;9.988;2023-01-19T13:00:45;14.33;;;6.90;;
14139;SDS011;7150;53.514;9.988;2023-01-19T13:13:25;7.33;;;5.73;;
14139;SDS011;7150;53.514;9.988;2023-01-19T13:15:51;12.90;;;7.30;;
14139;SDS011;7150;53.514;9.988;2023-01-19T13:18:22;10.07;;;6.77;;
14139;SDS011;7150;53.514;9.988;2023-01-19T13:20:57;11.47;;;7.30;;
14139;SDS011;7150;53.514;9.988;2023-01-19T13:23:26;11.80;;;6.93;;
14139;SDS011;7150;53.514;9.988;2023-01-19T13:26:16;11.60;;;6.80;;
14139;SDS011;7150;53.514;9.988;2023-01-19T13:29:21;9.60;;;5.97;;
14139;SDS011;7150;53.514;9.988;2023-01-19T13:31:55;10.27;;;5.93;;
14139;SDS011;7150;53.514;9.988;2023-01-19T13:34:27;9.57;;;6.53;;
14139;SDS011;7150;53.514;9.988;2023-01-19T13:37:15;8.63;;;6.10;;
14139;SDS011;7150;53.514;9.988;2023-01-19T13:39:44;9.40;;;5.83;;
14139;SDS011;7150;53.514;9.988;2023-01-19T13:42:15;9.87;;;6.77;;
14139;SDS011;7150;53.514;9.988;2023-01-19T13:44:57;10.67;;;6.10;;
14139;SDS011;7150;53.514;9.988;2023-01-19T13:47:28;11.40;;;6.80;;
14139;SDS011;7150;53.514;9.988;2023-01-19T13:53:16;9.20;;;5.60;;
14139;SDS011;7150;53.514;9.988;2023-01-19T13:55:44;11.20;;;6.63;;
14139;SDS011;7150;53.514;9.988;2023-01-19T13:58:22;13.87;;;6.80;;
14139;SDS011;7150;53.514;9.988;2023-01-19T14:00:47;11.67;;;6.00;;
14139;SDS011;7150;53.514;9.988;2023-01-19T14:05:40;8.00;;;6.20;;
14139;SDS011;7150;53.514;9.988;2023-01-19T14:10:58;10.80;;;5.63;;
14139;SDS011;7150;53.514;9.988;2023-01-19T14:16:10;13.20;;;5.87;;
14139;SDS011;7150;53.514;9.988;2023-01-19T14:18:40;11.70;;;5.43;;
14139;SDS011;7150;53.514;9.988;2023-01-19T14:21:06;10.30;;;5.87;;
14139;SDS011;7150;53.514;9.988;2023-01-19T14:29:46;9.37;;;5.33;;
14139;SDS011;7150;53.514;9.988;2023-01-19T14:34:44;7.67;;;5.47;;
14139;SDS011;7150;53.514;9.988;2023-01-19T14:37:36;9.43;;;5.73;;
14139;SDS011;7150;53.514;9.988;2023-01-19T14:42:37;10.40;;;5.47;;
14139;SDS011;7150;53.514;9.988;2023-01-19T14:45:24;9.40;;;4.97;;
14139;SDS011;7150;53.514;9.988;2023-01-19T14:47:58;7.60;;;4.50;;
14139;SDS011;7150;53.514;9.988;2023-01-19T14:50:27;9.87;;;4.80;;
14139;SDS011;7150;53.514;9.988;2023-01-19T14:53:01;9.07;;;5.00;;
14139;SDS011;7150;53.514;9.988;2023-01-19T14:58:12;8.87;;;5.63;;
14139;SDS011;7150;53.514;9.988;2023-01-19T15:00:39;7.87;;;4.83;;
14139;SDS011;7150;53.514;9.988;2023-01-19T15:03:06;10.93;;;5.40;;
14139;SDS011;7150;53.514;9.988;2023-01-19T15:05:33;9.10;;;5.10;;
14139;SDS011;7150;53.514;9.988;2023-01-19T15:08:00;10.47;;;4.87;;
14139;SDS011;7150;53.514;9.988;2023-01-19T15:10:27;8.90;;;5.17;;
14139;SDS011;7150;53.514;9.988;2023-01-19T15:12:54;9.60;;;5.40;;
14139;SDS011;7150;53.514;9.988;2023-01-19T15:15:30;9.07;;;4.77;;
14139;SDS011;7150;53.514;9.988;2023-01-19T15:18:01;9.70;;;5.03;;
14139;SDS011;7150;53.514;9.988;2023-01-19T15:20:28;8.80;;;4.93;;
14139;SDS011;7150;53.514;9.988;2023-01-19T15:22:54;9.37;;;4.63;;
14139;SDS011;7150;53.514;9.988;2023-01-19T15:25:20;8.00;;;4.63;;
14139;SDS011;7150;53.514;9.988;2023-01-19T15:27:49;11.17;;;5.90;;
14139;SDS011;7150;53.514;9.988;2023-01-19T15:30:17;8.03;;;4.67;;
14139;SDS011;7150;53.514;9.988;2023-01-19T15:32:45;10.60;;;5.13;;
14139;SDS011;7150;53.514;9.988;2023-01-19T15:35:11;10.97;;;4.67;;
14139;SDS011;7150;53.514;9.988;2023-01-19T15:37:41;10.07;;;5.13;;
14139;SDS011;7150;53.514;9.988;2023-01-19T15:40:07;9.77;;;4.80;;
14139;SDS011;7150;53.514;9.988;2023-01-19T15:42:35;8.67;;;4.40;;
14139;SDS011;7150;53.514;9.988;2023-01-19T15:45:01;13.70;;;5.53;;
14139;SDS011;7150;53.514;9.988;2023-01-19T15:47:26;8.17;;;4.50;;
14139;SDS011;7150;53.514;9.988;2023-01-19T15:49:52;10.43;;;5.10;;
14139;SDS011;7150;53.514;9.988;2023-01-19T15:52:17;9.43;;;4.40;;
14139;SDS011;7150;53.514;9.988;2023-01-19T15:54:43;9.17;;;5.07;;
14139;SDS011;7150;53.514;9.988;2023-01-19T15:57:09;7.97;;;5.03;;
14139;SDS011;7150;53.514;9.988;2023-01-19T15:59:34;6.30;;;4.50;;
14139;SDS011;7150;53.514;9.988;2023-01-19T16:02:00;7.83;;;4.33;;
14139;SDS011;7150;53.514;9.988;2023-01-19T16:04:26;9.90;;;4.00;;
14139;SDS011;7150;53.514;9.988;2023-01-19T16:06:51;4.63;;;3.20;;
14139;SDS011;7150;53.514;9.988;2023-01-19T16:09:17;6.07;;;3.57;;